Simcha — PE7688 — position and weather

sailwx.info

Track history (hours):
 
Tides and Currents Weather Stations Pressure Air Temp Water Temp Dewpoint Dewpoint Depression Visibility Wind Speed Wind Dir Waves Ship Positions

Simcha

Last reported at 2014-Nov-28 11:32 UTC. Time now 2014-Nov-28 12:19 UTC.
Position N 53°15' E 006°40'.

Length 110 m.

Type: Ship. MMSI: 244780014.

Date/timePositionNaut miles runAvg speedWind from/ knotsBaromVisibWave heightAir tempDewpointWater temp
2014-Nov-28 11:32N 53°15' E 006°40'6 5.7
2014-Nov-28 10:33N 53°18' E 006°48'5 4.8
2014-Nov-28 09:33N 53°19' E 006°56'5 4.9
2014-Nov-28 08:31N 53°20' E 007°04'3 0.1
2014-Nov-26 19:33N 53°20' E 007°09'7 6.7
2014-Nov-26 18:33N 53°22' E 006°58'7 7.2
2014-Nov-26 17:33N 53°27' E 006°50'0 0.4
2014-Nov-26 16:33N 53°27' E 006°50'0 0.0
2014-Nov-26 15:33N 53°27' E 006°50'0 0.0
2014-Nov-26 14:33N 53°27' E 006°50'0 0.0
2014-Nov-26 13:33N 53°27' E 006°50'0 0.0
2014-Nov-26 12:33N 53°27' E 006°50'0 0.0
2014-Nov-26 11:33N 53°27' E 006°50'0 0.0
2014-Nov-26 10:33N 53°27' E 006°50'0 0.0
2014-Nov-26 09:33N 53°27' E 006°50'0 0.0
2014-Nov-26 08:33N 53°27' E 006°50'0 0.1
2014-Nov-26 07:33N 53°27' E 006°50'0 0.0
2014-Nov-26 06:33N 53°27' E 006°50'0 0.0
2014-Nov-26 05:33N 53°27' E 006°50'0 0.0
2014-Nov-26 04:33N 53°27' E 006°50'0 0.0
2014-Nov-26 03:33N 53°27' E 006°50'0 0.0
2014-Nov-26 02:33N 53°27' E 006°50'0 0.0
2014-Nov-26 01:33N 53°27' E 006°50'0 0.0
2014-Nov-26 00:33N 53°27' E 006°50'0 0.0
2014-Nov-25 23:33N 53°27' E 006°50'0 0.0
2014-Nov-25 22:33N 53°27' E 006°50'0 0.0
2014-Nov-25 21:33N 53°27' E 006°50'0 0.0
2014-Nov-25 20:33N 53°27' E 006°50'0 0.0
2014-Nov-25 19:33N 53°27' E 006°50'3 3.5
2014-Nov-25 18:33N 53°26' E 006°55'7 6.9
2014-Nov-25 17:33N 53°19' E 006°58'1 1.4
2014-Nov-25 16:33N 53°19' E 006°56'0 0.1
2014-Nov-25 15:33N 53°19' E 006°56'0 0.0
2014-Nov-25 14:33N 53°19' E 006°56'0 0.0
2014-Nov-25 13:33N 53°19' E 006°56'0 0.0
2014-Nov-25 12:33N 53°19' E 006°56'0 0.0
2014-Nov-25 11:33N 53°19' E 006°56'0 0.0
2014-Nov-25 10:33N 53°19' E 006°56'0 0.0
2014-Nov-25 09:33N 53°19' E 006°56'0 0.0
2014-Nov-25 08:33N 53°19' E 006°56'0 0.0
2014-Nov-25 07:33N 53°19' E 006°56'0 0.0
2014-Nov-25 06:33N 53°19' E 006°56'0 0.0
2014-Nov-25 05:33N 53°19' E 006°56'0 0.0
2014-Nov-25 04:33N 53°19' E 006°56'0 0.0
2014-Nov-25 03:33N 53°19' E 006°56'0 0.0
2014-Nov-25 02:33N 53°19' E 006°56'0 0.0
2014-Nov-25 01:33N 53°19' E 006°56'0 0.0
2014-Nov-25 00:33N 53°19' E 006°56'0 0.0
2014-Nov-24 23:33N 53°19' E 006°56'0 0.0
2014-Nov-24 22:33N 53°19' E 006°56'0 0.0
2014-Nov-24 21:33N 53°19' E 006°56'0 0.1
2014-Nov-24 20:33N 53°19' E 006°56'4 4.4
2014-Nov-24 19:33N 53°18' E 006°49'5 4.9
2014-Nov-24 18:31N 53°15' E 006°42'49 2.0
2014-Nov-23 18:15N 52°47' E 005°36'5 5.9
2014-Nov-23 17:28N 52°42' E 005°35'6 5.4
2014-Nov-23 16:23N 52°37' E 005°39'5 5.9
2014-Nov-23 15:29N 52°35' E 005°47'5 5.9
2014-Nov-23 14:33N 52°33' E 005°55'4 4.3
2014-Nov-23 13:33N 52°31' E 006°01'80 3.5
2014-Nov-22 14:31N 51°15' E 006°44'5 4.9
2014-Nov-22 13:33N 51°11' E 006°46'  
Track history (hours):
 
Tides and Currents Weather Stations Pressure Air Temp Water Temp Dewpoint Dewpoint Depression Visibility Wind Speed Wind Dir Waves Ship Positions

Simcha

Last reported at 2014-Nov-28 11:32 UTC. Time now 2014-Nov-28 12:19 UTC.
Position N 53°15' E 006°40'.

Length 110 m.

Type: Ship. MMSI: 244780014.

Date/timePositionNaut miles runAvg speedWind from/ knotsBaromVisibWave heightAir tempDewpointWater temp
2014-Nov-28 11:32N 53°15' E 006°40'6 5.7
2014-Nov-28 10:33N 53°18' E 006°48'5 4.8
2014-Nov-28 09:33N 53°19' E 006°56'5 4.9
2014-Nov-28 08:31N 53°20' E 007°04'3 0.1
2014-Nov-26 19:33N 53°20' E 007°09'7 6.7
2014-Nov-26 18:33N 53°22' E 006°58'7 7.2
2014-Nov-26 17:33N 53°27' E 006°50'0 0.4
2014-Nov-26 16:33N 53°27' E 006°50'0 0.0
2014-Nov-26 15:33N 53°27' E 006°50'0 0.0
2014-Nov-26 14:33N 53°27' E 006°50'0 0.0
2014-Nov-26 13:33N 53°27' E 006°50'0 0.0
2014-Nov-26 12:33N 53°27' E 006°50'0 0.0
2014-Nov-26 11:33N 53°27' E 006°50'0 0.0
2014-Nov-26 10:33N 53°27' E 006°50'0 0.0
2014-Nov-26 09:33N 53°27' E 006°50'0 0.0
2014-Nov-26 08:33N 53°27' E 006°50'0 0.1
2014-Nov-26 07:33N 53°27' E 006°50'0 0.0
2014-Nov-26 06:33N 53°27' E 006°50'0 0.0
2014-Nov-26 05:33N 53°27' E 006°50'0 0.0
2014-Nov-26 04:33N 53°27' E 006°50'0 0.0
2014-Nov-26 03:33N 53°27' E 006°50'0 0.0
2014-Nov-26 02:33N 53°27' E 006°50'0 0.0
2014-Nov-26 01:33N 53°27' E 006°50'0 0.0
2014-Nov-26 00:33N 53°27' E 006°50'0 0.0
2014-Nov-25 23:33N 53°27' E 006°50'0 0.0
2014-Nov-25 22:33N 53°27' E 006°50'0 0.0
2014-Nov-25 21:33N 53°27' E 006°50'0 0.0
2014-Nov-25 20:33N 53°27' E 006°50'0 0.0
2014-Nov-25 19:33N 53°27' E 006°50'3 3.5
2014-Nov-25 18:33N 53°26' E 006°55'7 6.9
2014-Nov-25 17:33N 53°19' E 006°58'1 1.4
2014-Nov-25 16:33N 53°19' E 006°56'0 0.1
2014-Nov-25 15:33N 53°19' E 006°56'0 0.0
2014-Nov-25 14:33N 53°19' E 006°56'0 0.0
2014-Nov-25 13:33N 53°19' E 006°56'0 0.0
2014-Nov-25 12:33N 53°19' E 006°56'0 0.0
2014-Nov-25 11:33N 53°19' E 006°56'0 0.0
2014-Nov-25 10:33N 53°19' E 006°56'0 0.0
2014-Nov-25 09:33N 53°19' E 006°56'0 0.0
2014-Nov-25 08:33N 53°19' E 006°56'0 0.0
2014-Nov-25 07:33N 53°19' E 006°56'0 0.0
2014-Nov-25 06:33N 53°19' E 006°56'0 0.0
2014-Nov-25 05:33N 53°19' E 006°56'0 0.0
2014-Nov-25 04:33N 53°19' E 006°56'0 0.0
2014-Nov-25 03:33N 53°19' E 006°56'0 0.0
2014-Nov-25 02:33N 53°19' E 006°56'0 0.0
2014-Nov-25 01:33N 53°19' E 006°56'0 0.0
2014-Nov-25 00:33N 53°19' E 006°56'0 0.0
2014-Nov-24 23:33N 53°19' E 006°56'0 0.0
2014-Nov-24 22:33N 53°19' E 006°56'0 0.0
2014-Nov-24 21:33N 53°19' E 006°56'0 0.1
2014-Nov-24 20:33N 53°19' E 006°56'4 4.4
2014-Nov-24 19:33N 53°18' E 006°49'5 4.9
2014-Nov-24 18:31N 53°15' E 006°42'49 2.0
2014-Nov-23 18:15N 52°47' E 005°36'5 5.9
2014-Nov-23 17:28N 52°42' E 005°35'6 5.4
2014-Nov-23 16:23N 52°37' E 005°39'5 5.9
2014-Nov-23 15:29N 52°35' E 005°47'5 5.9
2014-Nov-23 14:33N 52°33' E 005°55'4 4.3
2014-Nov-23 13:33N 52°31' E 006°01'80 3.5
2014-Nov-22 14:31N 51°15' E 006°44'5 4.9
2014-Nov-22 13:33N 51°11' E 006°46'  

Dump ship's entire track history